Buckland, AK

12:40 PM AKDT on October 25, 2014 (GMT -0800)
Buckland | Change Station
CLOSE
Current Station
Airport
Location: Buckland,
Elevation: 30 ft
Nearby Weather Stations

Elev 30 ft 65.98 °N, 161.15 °W | Updated 4 minutes ago

Overcast
Overcast
34 °F
Feels Like 22 °F
N
22
Wind Variable Wind from SE
Gusts 30 mph

Today
High -- | Low -- °F
--% Chance of Precip.
Yesterday
High -- | Low -- °F
Precip. -- in
10:15 AM 6:40 PM
Waxing Crescent, 4% visible
Pressure 29.58 in
Visibility 10.0 miles
Clouds Mostly Cloudy 1100 ft
Overcast 2300 ft
Windchill 22 °F
Dew Point 30 °F
Humidity 87%
Rainfall 0.00 in
Snow Depth Not available.
UV 0 out of 12
Pollen Not available.
Air Quality Not available.
Flu Activity Local Activity
METAR PABL 252036Z AUTO 14019G26KT 10SM BKN011 OVC023 01/M01 A2958 RMK AO1

More Conditions Fewer Conditions

Pressure 29.58 in
Visibility 10.0 miles
Clouds Mostly Cloudy 1100 ft
Overcast 2300 ft
Windchill 22 °F
Dew Point 30 °F
Humidity 87%
Rainfall 0.00 in
Snow Depth Not available.
UV 0 out of 12
Pollen Not available.
Air Quality Not available.
Flu Activity Local Activity
METAR PABL 252036Z AUTO 14019G26KT 10SM BKN011 OVC023 01/M01 A2958 RMK AO1

More Conditions Fewer Conditions

10-Day Weather Forecast

Almanac

Astronomy

Oct. 25, 2014 Rise Set
Actual Time 10:15 AM AKDT 6:40 PM AKDT
Civil Twilight 9:20 AM AKDT 7:35 PM AKDT
Nautical Twilight 8:20 AM AKDT 8:35 PM AKDT
Astronomical Twilight 7:20 AM AKDT 9:34 PM AKDT
Moon 12:47 PM AKDT 7:27 PM AKDT
Length of Visible Light 10h 14m
Length of Day
8h 24m
Tomorrow will be 7m 13s shorter.
Waxing Crescent, 4% of the Moon is Illuminated
Today
Waxing Crescent
Oct 30
First Quarter
Nov 6
Full
Nov 14
Last Quarter
Nov 22
New

Today's Extremes

State Highs State Lows

Community

WunderPhotos

Upload Photos

1,764,989 photos uploaded!

Nearby

Snow Depth

Station Depth Elevation
Pargon Creek 0 in 300 ft
Rocky Point 3 in 500 ft
Gobblers Knob 2 in 2030 ft
Coldfoot 5 in 1040 ft
Atigun Pass 14 in 4800 ft

Earthquake Activity

City Distance Mag. Time & Date
No recent earthquake activity has been reported nearby.
Minimum magnitude displayed is 2.5.

Coastal Water Temperatures

Place Temperature
No Stations Reporting

Nearby Weather Stations